Hozan Maru — JJ4010 — position and weather

sailwx.info

Track history (hours):
 
Tides and Currents Weather Stations Pressure Air Temp Water Temp Dewpoint Dewpoint Depression Visibility Wind Speed Wind Dir Waves Ship Positions

Hozan Maru

Last reported at 2015-Aug-26 21:19 UTC. Time now 2015-Aug-31 17:49 UTC.
Position N 34°40' E 134°48'.

Length 38 m; draft 3.6 m.

Type: Tug. MMSI: 431401501.

Date/timePositionNaut miles runAvg speedWind from/ knotsBaromVisibWave heightAir tempDewpointWater temp
2015-Aug-26 21:19N 34°40' E 134°48'1213.5
2015-Aug-26 20:26N 34°37' E 135°02'1214.1
2015-Aug-26 19:33N 34°38' E 135°17'9 0.8
2015-Aug-26 08:26N 34°40' E 135°27'1 1.1
2015-Aug-26 07:33N 34°40' E 135°26'2 2.1
2015-Aug-26 06:33N 34°39' E 135°24'1 0.9
2015-Aug-26 05:33N 34°40' E 135°24'0 0.0
2015-Aug-26 04:33N 34°40' E 135°24'3 3.4
2015-Aug-26 03:33N 34°40' E 135°20'2 2.5
2015-Aug-26 02:33N 34°40' E 135°17'0 0.0
2015-Aug-26 01:33N 34°40' E 135°17'0 0.1
2015-Aug-26 00:33N 34°40' E 135°17'0 0.1
2015-Aug-25 23:33N 34°40' E 135°18'0 0.1
2015-Aug-25 22:33N 34°40' E 135°17'0 0.0
2015-Aug-25 21:33N 34°40' E 135°17'7 7.4
2015-Aug-25 20:33N 34°40' E 135°26'1 0.0
2015-Aug-24 05:07N 34°40' E 135°27'610.1
2015-Aug-24 04:33N 34°36' E 135°23'4 3.4
2015-Aug-24 03:31N 34°33' E 135°27'1 1.3
2015-Aug-24 02:33N 34°33' E 135°25'9 9.2
2015-Aug-24 01:33N 34°40' E 135°18'0 0.0
2015-Aug-24 00:33N 34°40' E 135°18'0 0.2
2015-Aug-23 23:33N 34°40' E 135°18'0 0.0
2015-Aug-23 22:33N 34°40' E 135°18'0 0.1
2015-Aug-23 21:33N 34°40' E 135°17'8 7.2
2015-Aug-23 20:30N 34°40' E 135°27'2 0.1
2015-Aug-22 05:33N 34°40' E 135°24'5 5.2
2015-Aug-22 04:33N 34°40' E 135°17'0 0.1
2015-Aug-22 03:33N 34°40' E 135°17'0 0.1
2015-Aug-22 02:33N 34°40' E 135°18'0 0.1
2015-Aug-22 01:33N 34°40' E 135°17'0 0.0
2015-Aug-22 00:33N 34°40' E 135°17'0 0.1
2015-Aug-21 23:33N 34°40' E 135°17'0 0.1
2015-Aug-21 22:33N 34°40' E 135°17'0 0.1
2015-Aug-21 21:33N 34°40' E 135°17'7 7.2
2015-Aug-21 20:32N 34°40' E 135°26'1 0.0
2015-Aug-21 03:32N 34°40' E 135°27'8 8.0
2015-Aug-21 02:33N 34°40' E 135°18'0 0.0
2015-Aug-21 01:33N 34°40' E 135°18'0 0.1
2015-Aug-21 00:33N 34°40' E 135°17'0 0.1
2015-Aug-20 23:33N 34°40' E 135°18'0 0.1
2015-Aug-20 22:33N 34°40' E 135°18'0 0.2
2015-Aug-20 21:33N 34°40' E 135°17'5 5.5
2015-Aug-20 20:33N 34°39' E 135°24'1 0.1
2015-Aug-20 13:33N 34°40' E 135°23'5 4.8
2015-Aug-20 12:33N 34°40' E 135°18'0 0.1
2015-Aug-20 11:33N 34°40' E 135°17'0 0.2
2015-Aug-20 10:33N 34°40' E 135°18'0 0.2
2015-Aug-20 09:33N 34°40' E 135°18'0 0.3
2015-Aug-20 08:33N 34°40' E 135°17'3 2.5
2015-Aug-20 07:33N 34°40' E 135°20'3 0.2
2015-Aug-19 14:33N 34°38' E 135°23'5 4.9
2015-Aug-19 13:34N 34°39' E 135°17'0 0.2
2015-Aug-19 12:34N 34°39' E 135°17'0 0.1
2015-Aug-19 11:33N 34°39' E 135°17'0 0.2
2015-Aug-19 10:34N 34°39' E 135°17'1 0.7
2015-Aug-19 09:33N 34°39' E 135°18'5 5.2
2015-Aug-19 08:33N 34°40' E 135°24'0 0.0
2015-Aug-19 07:33N 34°40' E 135°24'0 0.0
2015-Aug-19 06:33N 34°40' E 135°24'2 1.8
2015-Aug-19 05:33N 34°38' E 135°23'2 1.8
2015-Aug-19 04:34N 34°40' E 135°24'0 0.0
2015-Aug-19 03:33N 34°40' E 135°24'0 0.0
2015-Aug-19 02:34N 34°40' E 135°24'2 0.0
2015-Aug-17 04:14N 34°40' E 135°27'6 9.3
2015-Aug-17 03:34N 34°39' E 135°19'2 1.7
2015-Aug-17 02:33N 34°40' E 135°18'0 0.1
2015-Aug-17 01:33N 34°40' E 135°18'0 0.1
2015-Aug-17 00:33N 34°40' E 135°18'  
Track history (hours):
 
Tides and Currents Weather Stations Pressure Air Temp Water Temp Dewpoint Dewpoint Depression Visibility Wind Speed Wind Dir Waves Ship Positions

Hozan Maru

Last reported at 2015-Aug-26 21:19 UTC. Time now 2015-Aug-31 17:49 UTC.
Position N 34°40' E 134°48'.

Length 38 m; draft 3.6 m.

Type: Tug. MMSI: 431401501.

Date/timePositionNaut miles runAvg speedWind from/ knotsBaromVisibWave heightAir tempDewpointWater temp
2015-Aug-26 21:19N 34°40' E 134°48'1213.5
2015-Aug-26 20:26N 34°37' E 135°02'1214.1
2015-Aug-26 19:33N 34°38' E 135°17'9 0.8
2015-Aug-26 08:26N 34°40' E 135°27'1 1.1
2015-Aug-26 07:33N 34°40' E 135°26'2 2.1
2015-Aug-26 06:33N 34°39' E 135°24'1 0.9
2015-Aug-26 05:33N 34°40' E 135°24'0 0.0
2015-Aug-26 04:33N 34°40' E 135°24'3 3.4
2015-Aug-26 03:33N 34°40' E 135°20'2 2.5
2015-Aug-26 02:33N 34°40' E 135°17'0 0.0
2015-Aug-26 01:33N 34°40' E 135°17'0 0.1
2015-Aug-26 00:33N 34°40' E 135°17'0 0.1
2015-Aug-25 23:33N 34°40' E 135°18'0 0.1
2015-Aug-25 22:33N 34°40' E 135°17'0 0.0
2015-Aug-25 21:33N 34°40' E 135°17'7 7.4
2015-Aug-25 20:33N 34°40' E 135°26'1 0.0
2015-Aug-24 05:07N 34°40' E 135°27'610.1
2015-Aug-24 04:33N 34°36' E 135°23'4 3.4
2015-Aug-24 03:31N 34°33' E 135°27'1 1.3
2015-Aug-24 02:33N 34°33' E 135°25'9 9.2
2015-Aug-24 01:33N 34°40' E 135°18'0 0.0
2015-Aug-24 00:33N 34°40' E 135°18'0 0.2
2015-Aug-23 23:33N 34°40' E 135°18'0 0.0
2015-Aug-23 22:33N 34°40' E 135°18'0 0.1
2015-Aug-23 21:33N 34°40' E 135°17'8 7.2
2015-Aug-23 20:30N 34°40' E 135°27'2 0.1
2015-Aug-22 05:33N 34°40' E 135°24'5 5.2
2015-Aug-22 04:33N 34°40' E 135°17'0 0.1
2015-Aug-22 03:33N 34°40' E 135°17'0 0.1
2015-Aug-22 02:33N 34°40' E 135°18'0 0.1
2015-Aug-22 01:33N 34°40' E 135°17'0 0.0
2015-Aug-22 00:33N 34°40' E 135°17'0 0.1
2015-Aug-21 23:33N 34°40' E 135°17'0 0.1
2015-Aug-21 22:33N 34°40' E 135°17'0 0.1
2015-Aug-21 21:33N 34°40' E 135°17'7 7.2
2015-Aug-21 20:32N 34°40' E 135°26'1 0.0
2015-Aug-21 03:32N 34°40' E 135°27'8 8.0
2015-Aug-21 02:33N 34°40' E 135°18'0 0.0
2015-Aug-21 01:33N 34°40' E 135°18'0 0.1
2015-Aug-21 00:33N 34°40' E 135°17'0 0.1
2015-Aug-20 23:33N 34°40' E 135°18'0 0.1
2015-Aug-20 22:33N 34°40' E 135°18'0 0.2
2015-Aug-20 21:33N 34°40' E 135°17'5 5.5
2015-Aug-20 20:33N 34°39' E 135°24'1 0.1
2015-Aug-20 13:33N 34°40' E 135°23'5 4.8
2015-Aug-20 12:33N 34°40' E 135°18'0 0.1
2015-Aug-20 11:33N 34°40' E 135°17'0 0.2
2015-Aug-20 10:33N 34°40' E 135°18'0 0.2
2015-Aug-20 09:33N 34°40' E 135°18'0 0.3
2015-Aug-20 08:33N 34°40' E 135°17'3 2.5
2015-Aug-20 07:33N 34°40' E 135°20'3 0.2
2015-Aug-19 14:33N 34°38' E 135°23'5 4.9
2015-Aug-19 13:34N 34°39' E 135°17'0 0.2
2015-Aug-19 12:34N 34°39' E 135°17'0 0.1
2015-Aug-19 11:33N 34°39' E 135°17'0 0.2
2015-Aug-19 10:34N 34°39' E 135°17'1 0.7
2015-Aug-19 09:33N 34°39' E 135°18'5 5.2
2015-Aug-19 08:33N 34°40' E 135°24'0 0.0
2015-Aug-19 07:33N 34°40' E 135°24'0 0.0
2015-Aug-19 06:33N 34°40' E 135°24'2 1.8
2015-Aug-19 05:33N 34°38' E 135°23'2 1.8
2015-Aug-19 04:34N 34°40' E 135°24'0 0.0
2015-Aug-19 03:33N 34°40' E 135°24'0 0.0
2015-Aug-19 02:34N 34°40' E 135°24'2 0.0
2015-Aug-17 04:14N 34°40' E 135°27'6 9.3
2015-Aug-17 03:34N 34°39' E 135°19'2 1.7
2015-Aug-17 02:33N 34°40' E 135°18'0 0.1
2015-Aug-17 01:33N 34°40' E 135°18'0 0.1
2015-Aug-17 00:33N 34°40' E 135°18'  

Dump ship's entire track history